sensor_id;sensor_type;location;lat;lon;timestamp;temperature;humidity
46758;DHT22;32509;47.750;-3.396;2023-07-20T00:00:52;18.30;99.90
46758;DHT22;32509;47.750;-3.396;2023-07-20T00:03:19;18.30;99.90
46758;DHT22;32509;47.750;-3.396;2023-07-20T00:05:51;18.30;99.90
46758;DHT22;32509;47.750;-3.396;2023-07-20T00:08:17;18.30;99.90
46758;DHT22;32509;47.750;-3.396;2023-07-20T00:10:43;18.30;99.90
46758;DHT22;32509;47.750;-3.396;2023-07-20T00:13:13;18.30;99.90
46758;DHT22;32509;47.750;-3.396;2023-07-20T00:15:38;18.30;99.90
46758;DHT22;32509;47.750;-3.396;2023-07-20T00:18:05;18.30;99.90
46758;DHT22;32509;47.750;-3.396;2023-07-20T00:20:31;18.30;99.90
46758;DHT22;32509;47.750;-3.396;2023-07-20T00:22:57;18.30;99.90
46758;DHT22;32509;47.750;-3.396;2023-07-20T00:25:23;18.30;99.90
46758;DHT22;32509;47.750;-3.396;2023-07-20T00:27:49;18.20;99.90
46758;DHT22;32509;47.750;-3.396;2023-07-20T00:30:15;18.20;99.90
46758;DHT22;32509;47.750;-3.396;2023-07-20T00:32:42;18.20;99.90
46758;DHT22;32509;47.750;-3.396;2023-07-20T00:35:09;18.20;99.90
46758;DHT22;32509;47.750;-3.396;2023-07-20T00:37:35;18.20;99.90
46758;DHT22;32509;47.750;-3.396;2023-07-20T00:40:00;18.20;99.90
46758;DHT22;32509;47.750;-3.396;2023-07-20T00:42:26;18.20;99.90
46758;DHT22;32509;47.750;-3.396;2023-07-20T00:44:52;18.20;99.90
46758;DHT22;32509;47.750;-3.396;2023-07-20T00:47:18;18.20;99.90
46758;DHT22;32509;47.750;-3.396;2023-07-20T00:49:43;18.20;99.90
46758;DHT22;32509;47.750;-3.396;2023-07-20T00:52:10;18.10;99.90
46758;DHT22;32509;47.750;-3.396;2023-07-20T00:54:38;18.20;99.90
46758;DHT22;32509;47.750;-3.396;2023-07-20T00:57:04;18.10;99.90
46758;DHT22;32509;47.750;-3.396;2023-07-20T00:59:32;18.10;99.90
46758;DHT22;32509;47.750;-3.396;2023-07-20T01:01:58;18.10;99.90
46758;DHT22;32509;47.750;-3.396;2023-07-20T01:04:24;18.10;99.90
46758;DHT22;32509;47.750;-3.396;2023-07-20T01:07:00;18.10;99.90
46758;DHT22;32509;47.750;-3.396;2023-07-20T01:09:59;18.00;99.90
46758;DHT22;32509;47.750;-3.396;2023-07-20T01:12:30;18.00;99.90
46758;DHT22;32509;47.750;-3.396;2023-07-20T01:14:58;18.00;99.90
46758;DHT22;32509;47.750;-3.396;2023-07-20T01:17:24;18.00;99.90
46758;DHT22;32509;47.750;-3.396;2023-07-20T01:19:50;18.00;99.90
46758;DHT22;32509;47.750;-3.396;2023-07-20T01:22:21;18.00;99.90
46758;DHT22;32509;47.750;-3.396;2023-07-20T01:27:43;18.00;99.90
46758;DHT22;32509;47.750;-3.396;2023-07-20T01:33:02;18.00;99.90
46758;DHT22;32509;47.750;-3.396;2023-07-20T01:35:30;17.90;99.90
46758;DHT22;32509;47.750;-3.396;2023-07-20T01:37:56;18.00;99.90
46758;DHT22;32509;47.750;-3.396;2023-07-20T01:40:24;17.90;99.90
46758;DHT22;32509;47.750;-3.396;2023-07-20T01:42:51;17.90;99.90
46758;DHT22;32509;47.750;-3.396;2023-07-20T01:45:17;18.00;99.90
46758;DHT22;32509;47.750;-3.396;2023-07-20T01:47:43;17.90;99.90
46758;DHT22;32509;47.750;-3.396;2023-07-20T01:50:09;17.90;99.90
46758;DHT22;32509;47.750;-3.396;2023-07-20T01:52:35;17.90;99.90
46758;DHT22;32509;47.750;-3.396;2023-07-20T01:55:00;17.90;99.90
46758;DHT22;32509;47.750;-3.396;2023-07-20T01:57:26;17.80;99.90
46758;DHT22;32509;47.750;-3.396;2023-07-20T01:59:52;17.90;99.90
46758;DHT22;32509;47.750;-3.396;2023-07-20T02:02:18;17.80;99.90
46758;DHT22;32509;47.750;-3.396;2023-07-20T02:04:44;17.80;99.90
46758;DHT22;32509;47.750;-3.396;2023-07-20T02:07:09;17.80;99.90
46758;DHT22;32509;47.750;-3.396;2023-07-20T02:09:35;17.80;99.90
46758;DHT22;32509;47.750;-3.396;2023-07-20T02:12:01;17.80;99.90
46758;DHT22;32509;47.750;-3.396;2023-07-20T02:14:27;17.90;99.90
46758;DHT22;32509;47.750;-3.396;2023-07-20T02:16:53;17.90;99.90
46758;DHT22;32509;47.750;-3.396;2023-07-20T02:19:25;17.80;99.90
46758;DHT22;32509;47.750;-3.396;2023-07-20T02:21:50;17.80;99.90
46758;DHT22;32509;47.750;-3.396;2023-07-20T02:24:16;17.80;99.90
46758;DHT22;32509;47.750;-3.396;2023-07-20T02:26:42;17.80;99.90
46758;DHT22;32509;47.750;-3.396;2023-07-20T02:29:08;17.80;99.90
46758;DHT22;32509;47.750;-3.396;2023-07-20T02:31:37;17.80;99.90
46758;DHT22;32509;47.750;-3.396;2023-07-20T02:34:05;17.70;99.90
46758;DHT22;32509;47.750;-3.396;2023-07-20T02:36:32;17.70;99.90
46758;DHT22;32509;47.750;-3.396;2023-07-20T02:39:01;17.80;99.90
46758;DHT22;32509;47.750;-3.396;2023-07-20T02:41:33;17.80;99.90
46758;DHT22;32509;47.750;-3.396;2023-07-20T02:43:59;17.70;99.90
46758;DHT22;32509;47.750;-3.396;2023-07-20T02:46:25;17.70;99.90
46758;DHT22;32509;47.750;-3.396;2023-07-20T02:48:51;17.70;99.90
46758;DHT22;32509;47.750;-3.396;2023-07-20T02:51:17;17.70;99.90
46758;DHT22;32509;47.750;-3.396;2023-07-20T02:53:42;17.70;99.90
46758;DHT22;32509;47.750;-3.396;2023-07-20T02:56:08;17.70;99.90
46758;DHT22;32509;47.750;-3.396;2023-07-20T02:58:34;17.70;99.90
46758;DHT22;32509;47.750;-3.396;2023-07-20T03:01:04;17.70;99.90
46758;DHT22;32509;47.750;-3.396;2023-07-20T03:03:29;17.70;99.90
46758;DHT22;32509;47.750;-3.396;2023-07-20T03:05:55;17.70;99.90
46758;DHT22;32509;47.750;-3.396;2023-07-20T03:08:23;17.60;99.90
46758;DHT22;32509;47.750;-3.396;2023-07-20T03:10:49;17.70;99.90
46758;DHT22;32509;47.750;-3.396;2023-07-20T03:13:15;17.60;99.90
46758;DHT22;32509;47.750;-3.396;2023-07-20T03:15:41;17.70;99.90
46758;DHT22;32509;47.750;-3.396;2023-07-20T03:18:07;17.70;99.90
46758;DHT22;32509;47.750;-3.396;2023-07-20T03:20:33;17.60;99.90
46758;DHT22;32509;47.750;-3.396;2023-07-20T03:23:00;17.60;99.90
46758;DHT22;32509;47.750;-3.396;2023-07-20T03:25:26;17.60;99.90
46758;DHT22;32509;47.750;-3.396;2023-07-20T03:27:52;17.60;99.90
46758;DHT22;32509;47.750;-3.396;2023-07-20T03:30:17;17.60;99.90
46758;DHT22;32509;47.750;-3.396;2023-07-20T03:32:43;17.60;99.90
46758;DHT22;32509;47.750;-3.396;2023-07-20T03:35:09;17.60;99.90
46758;DHT22;32509;47.750;-3.396;2023-07-20T03:37:35;17.60;99.90
46758;DHT22;32509;47.750;-3.396;2023-07-20T03:40:02;17.60;99.90
46758;DHT22;32509;47.750;-3.396;2023-07-20T03:42:28;17.60;99.90
46758;DHT22;32509;47.750;-3.396;2023-07-20T03:44:54;17.60;99.90
46758;DHT22;32509;47.750;-3.396;2023-07-20T03:47:20;17.60;99.90
46758;DHT22;32509;47.750;-3.396;2023-07-20T03:49:45;17.60;99.90
46758;DHT22;32509;47.750;-3.396;2023-07-20T03:52:11;17.60;99.90
46758;DHT22;32509;47.750;-3.396;2023-07-20T03:54:37;17.60;99.90
46758;DHT22;32509;47.750;-3.396;2023-07-20T03:57:02;17.60;99.90
46758;DHT22;32509;47.750;-3.396;2023-07-20T03:59:28;17.60;99.90
46758;DHT22;32509;47.750;-3.396;2023-07-20T04:01:54;17.60;99.90
46758;DHT22;32509;47.750;-3.396;2023-07-20T04:04:20;17.60;99.90
46758;DHT22;32509;47.750;-3.396;2023-07-20T04:06:45;17.60;99.90
46758;DHT22;32509;47.750;-3.396;2023-07-20T04:09:12;17.60;99.90
46758;DHT22;32509;47.750;-3.396;2023-07-20T04:11:38;17.60;99.90
46758;DHT22;32509;47.750;-3.396;2023-07-20T04:14:04;17.60;99.90
46758;DHT22;32509;47.750;-3.396;2023-07-20T04:16:30;17.50;99.90
46758;DHT22;32509;47.750;-3.396;2023-07-20T04:18:56;17.60;99.90
46758;DHT22;32509;47.750;-3.396;2023-07-20T04:21:22;17.50;99.90
46758;DHT22;32509;47.750;-3.396;2023-07-20T04:23:48;17.50;99.90
46758;DHT22;32509;47.750;-3.396;2023-07-20T04:26:14;17.50;99.90
46758;DHT22;32509;47.750;-3.396;2023-07-20T04:28:40;17.50;99.90
46758;DHT22;32509;47.750;-3.396;2023-07-20T04:31:14;17.50;99.90
46758;DHT22;32509;47.750;-3.396;2023-07-20T04:33:40;17.50;99.90
46758;DHT22;32509;47.750;-3.396;2023-07-20T04:36:07;17.50;99.90
46758;DHT22;32509;47.750;-3.396;2023-07-20T04:38:33;17.50;99.90
46758;DHT22;32509;47.750;-3.396;2023-07-20T04:40:59;17.50;99.90
46758;DHT22;32509;47.750;-3.396;2023-07-20T04:43:25;17.50;99.90
46758;DHT22;32509;47.750;-3.396;2023-07-20T04:45:51;17.50;99.90
46758;DHT22;32509;47.750;-3.396;2023-07-20T04:48:17;17.50;99.90
46758;DHT22;32509;47.750;-3.396;2023-07-20T04:50:45;17.50;99.90
46758;DHT22;32509;47.750;-3.396;2023-07-20T04:53:11;17.50;99.90
46758;DHT22;32509;47.750;-3.396;2023-07-20T04:55:46;17.50;99.90
46758;DHT22;32509;47.750;-3.396;2023-07-20T04:58:12;17.50;99.90
46758;DHT22;32509;47.750;-3.396;2023-07-20T05:00:38;17.50;99.90
46758;DHT22;32509;47.750;-3.396;2023-07-20T05:03:04;17.50;99.90
46758;DHT22;32509;47.750;-3.396;2023-07-20T05:05:31;17.50;99.90
46758;DHT22;32509;47.750;-3.396;2023-07-20T05:07:57;17.50;99.90
46758;DHT22;32509;47.750;-3.396;2023-07-20T05:10:23;17.50;99.90
46758;DHT22;32509;47.750;-3.396;2023-07-20T05:12:49;17.50;99.90
46758;DHT22;32509;47.750;-3.396;2023-07-20T05:15:15;17.50;99.90
46758;DHT22;32509;47.750;-3.396;2023-07-20T05:17:41;17.50;99.90
46758;DHT22;32509;47.750;-3.396;2023-07-20T05:20:07;17.50;99.90
46758;DHT22;32509;47.750;-3.396;2023-07-20T05:22:36;17.50;99.90
46758;DHT22;32509;47.750;-3.396;2023-07-20T05:25:06;17.50;99.90
46758;DHT22;32509;47.750;-3.396;2023-07-20T05:27:33;17.50;99.90
46758;DHT22;32509;47.750;-3.396;2023-07-20T05:29:59;17.50;99.90
46758;DHT22;32509;47.750;-3.396;2023-07-20T05:32:25;17.50;99.90
46758;DHT22;32509;47.750;-3.396;2023-07-20T05:34:54;17.60;99.90
46758;DHT22;32509;47.750;-3.396;2023-07-20T05:37:20;17.60;99.90
46758;DHT22;32509;47.750;-3.396;2023-07-20T05:39:46;17.60;99.90
46758;DHT22;32509;47.750;-3.396;2023-07-20T05:42:12;17.60;99.90
46758;DHT22;32509;47.750;-3.396;2023-07-20T05:44:38;17.60;99.90
46758;DHT22;32509;47.750;-3.396;2023-07-20T05:47:04;17.60;99.90
46758;DHT22;32509;47.750;-3.396;2023-07-20T05:49:30;17.60;99.90
46758;DHT22;32509;47.750;-3.396;2023-07-20T05:51:56;17.60;99.90
46758;DHT22;32509;47.750;-3.396;2023-07-20T05:54:25;17.60;99.90
46758;DHT22;32509;47.750;-3.396;2023-07-20T05:56:51;17.60;99.90
46758;DHT22;32509;47.750;-3.396;2023-07-20T05:59:17;17.60;99.90
46758;DHT22;32509;47.750;-3.396;2023-07-20T06:01:43;17.60;99.90
46758;DHT22;32509;47.750;-3.396;2023-07-20T06:04:09;17.60;99.90
46758;DHT22;32509;47.750;-3.396;2023-07-20T06:06:35;17.60;99.90
46758;DHT22;32509;47.750;-3.396;2023-07-20T06:09:00;17.60;99.90
46758;DHT22;32509;47.750;-3.396;2023-07-20T06:11:30;17.60;99.90
46758;DHT22;32509;47.750;-3.396;2023-07-20T06:13:56;17.70;99.90
46758;DHT22;32509;47.750;-3.396;2023-07-20T06:16:22;17.70;99.90
46758;DHT22;32509;47.750;-3.396;2023-07-20T06:18:48;17.70;99.90
46758;DHT22;32509;47.750;-3.396;2023-07-20T06:21:14;17.70;99.90
46758;DHT22;32509;47.750;-3.396;2023-07-20T06:23:41;17.70;99.90
46758;DHT22;32509;47.750;-3.396;2023-07-20T06:26:07;17.70;99.90
46758;DHT22;32509;47.750;-3.396;2023-07-20T06:28:33;17.70;99.90
46758;DHT22;32509;47.750;-3.396;2023-07-20T06:31:00;17.70;99.90
46758;DHT22;32509;47.750;-3.396;2023-07-20T06:33:26;17.80;99.90
46758;DHT22;32509;47.750;-3.396;2023-07-20T06:35:52;17.80;99.90
46758;DHT22;32509;47.750;-3.396;2023-07-20T06:38:18;17.80;99.90
46758;DHT22;32509;47.750;-3.396;2023-07-20T06:40:47;17.80;99.90
46758;DHT22;32509;47.750;-3.396;2023-07-20T06:43:13;17.80;99.90
46758;DHT22;32509;47.750;-3.396;2023-07-20T06:45:39;17.80;99.90
46758;DHT22;32509;47.750;-3.396;2023-07-20T06:48:04;17.80;99.90
46758;DHT22;32509;47.750;-3.396;2023-07-20T06:50:30;17.80;99.90
46758;DHT22;32509;47.750;-3.396;2023-07-20T06:52:56;17.80;99.90
46758;DHT22;32509;47.750;-3.396;2023-07-20T06:55:22;17.80;99.90
46758;DHT22;32509;47.750;-3.396;2023-07-20T06:57:48;17.80;99.90
46758;DHT22;32509;47.750;-3.396;2023-07-20T07:00:14;17.90;99.90
46758;DHT22;32509;47.750;-3.396;2023-07-20T07:02:40;17.90;99.90
46758;DHT22;32509;47.750;-3.396;2023-07-20T07:05:06;17.90;99.90
46758;DHT22;32509;47.750;-3.396;2023-07-20T07:07:32;17.90;99.90
46758;DHT22;32509;47.750;-3.396;2023-07-20T07:09:57;17.90;99.90
46758;DHT22;32509;47.750;-3.396;2023-07-20T07:12:23;17.90;99.90
46758;DHT22;32509;47.750;-3.396;2023-07-20T07:14:49;18.00;99.90
46758;DHT22;32509;47.750;-3.396;2023-07-20T07:17:15;18.00;99.90
46758;DHT22;32509;47.750;-3.396;2023-07-20T07:19:41;18.00;99.90
46758;DHT22;32509;47.750;-3.396;2023-07-20T07:22:07;18.10;99.90
46758;DHT22;32509;47.750;-3.396;2023-07-20T07:24:33;18.00;99.90
46758;DHT22;32509;47.750;-3.396;2023-07-20T07:27:00;18.10;99.90
46758;DHT22;32509;47.750;-3.396;2023-07-20T07:29:26;18.10;99.90
46758;DHT22;32509;47.750;-3.396;2023-07-20T07:31:52;18.10;99.90
46758;DHT22;32509;47.750;-3.396;2023-07-20T07:34:18;18.00;99.90
46758;DHT22;32509;47.750;-3.396;2023-07-20T07:36:44;18.10;99.90
46758;DHT22;32509;47.750;-3.396;2023-07-20T07:39:10;18.10;99.90
46758;DHT22;32509;47.750;-3.396;2023-07-20T07:41:36;18.10;99.90
46758;DHT22;32509;47.750;-3.396;2023-07-20T07:44:01;18.10;99.90
46758;DHT22;32509;47.750;-3.396;2023-07-20T07:46:27;18.10;99.90
46758;DHT22;32509;47.750;-3.396;2023-07-20T07:48:53;18.20;99.90
46758;DHT22;32509;47.750;-3.396;2023-07-20T07:51:19;18.20;99.90
46758;DHT22;32509;47.750;-3.396;2023-07-20T07:53:46;18.20;99.90
46758;DHT22;32509;47.750;-3.396;2023-07-20T07:56:12;18.20;99.90
46758;DHT22;32509;47.750;-3.396;2023-07-20T07:58:38;18.20;99.90
46758;DHT22;32509;47.750;-3.396;2023-07-20T08:01:04;18.20;99.90
46758;DHT22;32509;47.750;-3.396;2023-07-20T08:03:30;18.30;99.90
46758;DHT22;32509;47.750;-3.396;2023-07-20T08:05:56;18.30;99.90
46758;DHT22;32509;47.750;-3.396;2023-07-20T08:08:22;18.30;99.90
46758;DHT22;32509;47.750;-3.396;2023-07-20T08:10:48;18.30;99.90
46758;DHT22;32509;47.750;-3.396;2023-07-20T08:13:14;18.40;99.90
46758;DHT22;32509;47.750;-3.396;2023-07-20T08:15:45;18.40;99.90
46758;DHT22;32509;47.750;-3.396;2023-07-20T08:18:11;18.40;99.90
46758;DHT22;32509;47.750;-3.396;2023-07-20T08:20:37;18.50;99.90
46758;DHT22;32509;47.750;-3.396;2023-07-20T08:23:02;18.50;99.90
46758;DHT22;32509;47.750;-3.396;2023-07-20T08:25:28;18.50;99.90
46758;DHT22;32509;47.750;-3.396;2023-07-20T08:27:54;18.50;99.90
46758;DHT22;32509;47.750;-3.396;2023-07-20T08:30:21;18.60;99.90
46758;DHT22;32509;47.750;-3.396;2023-07-20T08:32:48;18.60;99.90
46758;DHT22;32509;47.750;-3.396;2023-07-20T08:35:14;18.60;99.90
46758;DHT22;32509;47.750;-3.396;2023-07-20T08:37:41;18.60;99.90
46758;DHT22;32509;47.750;-3.396;2023-07-20T08:40:07;18.70;99.90
46758;DHT22;32509;47.750;-3.396;2023-07-20T08:42:34;18.70;99.90
46758;DHT22;32509;47.750;-3.396;2023-07-20T08:45:04;18.80;99.90
46758;DHT22;32509;47.750;-3.396;2023-07-20T08:47:31;18.80;99.90
46758;DHT22;32509;47.750;-3.396;2023-07-20T08:49:58;18.80;99.90
46758;DHT22;32509;47.750;-3.396;2023-07-20T08:52:24;18.80;99.90
46758;DHT22;32509;47.750;-3.396;2023-07-20T08:54:52;18.80;99.90
46758;DHT22;32509;47.750;-3.396;2023-07-20T08:57:21;18.90;99.90
46758;DHT22;32509;47.750;-3.396;2023-07-20T08:59:47;18.90;99.90
46758;DHT22;32509;47.750;-3.396;2023-07-20T09:02:16;18.90;99.90
46758;DHT22;32509;47.750;-3.396;2023-07-20T09:04:44;18.90;99.90
46758;DHT22;32509;47.750;-3.396;2023-07-20T09:07:10;18.90;99.90
46758;DHT22;32509;47.750;-3.396;2023-07-20T09:09:40;18.90;99.90
46758;DHT22;32509;47.750;-3.396;2023-07-20T09:12:14;19.00;99.90
46758;DHT22;32509;47.750;-3.396;2023-07-20T09:14:45;19.00;99.90
46758;DHT22;32509;47.750;-3.396;2023-07-20T09:17:14;19.00;99.90
46758;DHT22;32509;47.750;-3.396;2023-07-20T09:19:48;19.00;99.90
46758;DHT22;32509;47.750;-3.396;2023-07-20T09:22:14;19.00;99.90
46758;DHT22;32509;47.750;-3.396;2023-07-20T09:24:39;19.10;99.90
46758;DHT22;32509;47.750;-3.396;2023-07-20T09:27:07;19.10;99.90
46758;DHT22;32509;47.750;-3.396;2023-07-20T09:29:32;19.10;99.90
46758;DHT22;32509;47.750;-3.396;2023-07-20T09:32:03;19.10;99.90
46758;DHT22;32509;47.750;-3.396;2023-07-20T09:34:32;19.20;99.90
46758;DHT22;32509;47.750;-3.396;2023-07-20T09:36:59;19.20;99.90
46758;DHT22;32509;47.750;-3.396;2023-07-20T09:39:26;19.20;99.90
46758;DHT22;32509;47.750;-3.396;2023-07-20T09:41:52;19.30;99.90
46758;DHT22;32509;47.750;-3.396;2023-07-20T09:44:18;19.30;99.90
46758;DHT22;32509;47.750;-3.396;2023-07-20T09:46:50;19.30;99.90
46758;DHT22;32509;47.750;-3.396;2023-07-20T09:49:19;19.30;99.90
46758;DHT22;32509;47.750;-3.396;2023-07-20T09:51:46;19.40;99.90
46758;DHT22;32509;47.750;-3.396;2023-07-20T09:54:13;19.40;99.90
46758;DHT22;32509;47.750;-3.396;2023-07-20T09:56:40;19.40;99.90
46758;DHT22;32509;47.750;-3.396;2023-07-20T09:59:06;19.40;99.90
46758;DHT22;32509;47.750;-3.396;2023-07-20T10:01:32;19.50;99.90
46758;DHT22;32509;47.750;-3.396;2023-07-20T10:04:03;19.50;99.90
46758;DHT22;32509;47.750;-3.396;2023-07-20T10:06:32;19.60;99.90
46758;DHT22;32509;47.750;-3.396;2023-07-20T10:09:01;19.60;99.90
46758;DHT22;32509;47.750;-3.396;2023-07-20T10:11:31;19.60;99.90
46758;DHT22;32509;47.750;-3.396;2023-07-20T10:13:59;19.60;99.90
46758;DHT22;32509;47.750;-3.396;2023-07-20T10:16:29;19.60;99.90
46758;DHT22;32509;47.750;-3.396;2023-07-20T10:19:46;19.70;99.90
46758;DHT22;32509;47.750;-3.396;2023-07-20T10:22:00;19.70;99.90
46758;DHT22;32509;47.750;-3.396;2023-07-20T10:24:28;19.70;99.90
46758;DHT22;32509;47.750;-3.396;2023-07-20T10:26:55;19.80;99.90
46758;DHT22;32509;47.750;-3.396;2023-07-20T10:29:21;19.70;99.90
46758;DHT22;32509;47.750;-3.396;2023-07-20T10:31:48;19.70;99.90
46758;DHT22;32509;47.750;-3.396;2023-07-20T10:34:14;19.80;99.90
46758;DHT22;32509;47.750;-3.396;2023-07-20T10:36:44;19.70;99.90
46758;DHT22;32509;47.750;-3.396;2023-07-20T10:39:25;19.80;99.90
46758;DHT22;32509;47.750;-3.396;2023-07-20T10:42:00;19.80;99.90
46758;DHT22;32509;47.750;-3.396;2023-07-20T10:44:27;19.80;99.90
46758;DHT22;32509;47.750;-3.396;2023-07-20T10:47:00;19.90;99.90
46758;DHT22;32509;47.750;-3.396;2023-07-20T10:49:26;19.90;99.90
46758;DHT22;32509;47.750;-3.396;2023-07-20T10:51:58;19.90;99.90
46758;DHT22;32509;47.750;-3.396;2023-07-20T10:56:55;20.00;99.90
46758;DHT22;32509;47.750;-3.396;2023-07-20T11:01:55;20.10;99.90
46758;DHT22;32509;47.750;-3.396;2023-07-20T11:04:38;20.10;99.90
46758;DHT22;32509;47.750;-3.396;2023-07-20T11:07:04;20.10;99.90
46758;DHT22;32509;47.750;-3.396;2023-07-20T11:09:34;20.20;99.90
46758;DHT22;32509;47.750;-3.396;2023-07-20T11:12:11;20.20;99.90
46758;DHT22;32509;47.750;-3.396;2023-07-20T11:14:41;20.30;99.90
46758;DHT22;32509;47.750;-3.396;2023-07-20T11:17:15;20.30;99.90
46758;DHT22;32509;47.750;-3.396;2023-07-20T11:19:41;20.30;99.90
46758;DHT22;32509;47.750;-3.396;2023-07-20T11:22:07;20.40;99.90
46758;DHT22;32509;47.750;-3.396;2023-07-20T11:24:44;20.40;99.90
46758;DHT22;32509;47.750;-3.396;2023-07-20T11:27:10;20.50;99.90
46758;DHT22;32509;47.750;-3.396;2023-07-20T11:29:37;20.50;99.90
46758;DHT22;32509;47.750;-3.396;2023-07-20T11:32:03;20.40;99.90
46758;DHT22;32509;47.750;-3.396;2023-07-20T11:34:31;20.50;99.90
46758;DHT22;32509;47.750;-3.396;2023-07-20T11:36:57;20.50;99.90
46758;DHT22;32509;47.750;-3.396;2023-07-20T11:39:23;20.60;99.90
46758;DHT22;32509;47.750;-3.396;2023-07-20T11:41:54;20.60;99.90
46758;DHT22;32509;47.750;-3.396;2023-07-20T11:44:22;20.60;99.90
46758;DHT22;32509;47.750;-3.396;2023-07-20T11:47:04;20.70;99.90
46758;DHT22;32509;47.750;-3.396;2023-07-20T11:49:30;20.70;99.90
46758;DHT22;32509;47.750;-3.396;2023-07-20T11:51:59;20.70;99.90
46758;DHT22;32509;47.750;-3.396;2023-07-20T11:54:26;20.70;99.90
46758;DHT22;32509;47.750;-3.396;2023-07-20T11:56:55;20.80;99.90
46758;DHT22;32509;47.750;-3.396;2023-07-20T11:59:21;20.80;99.90
46758;DHT22;32509;47.750;-3.396;2023-07-20T12:01:47;20.80;99.90
46758;DHT22;32509;47.750;-3.396;2023-07-20T12:04:13;20.80;99.90
46758;DHT22;32509;47.750;-3.396;2023-07-20T12:06:39;20.80;99.90
46758;DHT22;32509;47.750;-3.396;2023-07-20T12:09:05;20.80;99.90
46758;DHT22;32509;47.750;-3.396;2023-07-20T12:11:38;20.90;99.90
46758;DHT22;32509;47.750;-3.396;2023-07-20T12:14:07;20.90;99.90
46758;DHT22;32509;47.750;-3.396;2023-07-20T12:16:34;20.90;99.90
46758;DHT22;32509;47.750;-3.396;2023-07-20T12:21:28;21.00;99.90
46758;DHT22;32509;47.750;-3.396;2023-07-20T12:23:56;20.90;99.90
46758;DHT22;32509;47.750;-3.396;2023-07-20T12:26:23;21.00;99.90
46758;DHT22;32509;47.750;-3.396;2023-07-20T12:28:49;21.10;99.90
46758;DHT22;32509;47.750;-3.396;2023-07-20T12:31:15;21.00;99.90
46758;DHT22;32509;47.750;-3.396;2023-07-20T12:33:41;21.00;99.90
46758;DHT22;32509;47.750;-3.396;2023-07-20T12:36:09;21.10;99.90
46758;DHT22;32509;47.750;-3.396;2023-07-20T12:38:35;21.10;99.90
46758;DHT22;32509;47.750;-3.396;2023-07-20T12:41:03;21.10;99.90
46758;DHT22;32509;47.750;-3.396;2023-07-20T12:43:29;21.00;99.90
46758;DHT22;32509;47.750;-3.396;2023-07-20T12:45:55;21.10;99.90
46758;DHT22;32509;47.750;-3.396;2023-07-20T12:48:21;21.20;99.90
46758;DHT22;32509;47.750;-3.396;2023-07-20T12:50:48;21.20;99.90
46758;DHT22;32509;47.750;-3.396;2023-07-20T12:53:14;21.20;99.90
46758;DHT22;32509;47.750;-3.396;2023-07-20T12:55:40;21.20;99.90
46758;DHT22;32509;47.750;-3.396;2023-07-20T12:58:07;21.20;99.90
46758;DHT22;32509;47.750;-3.396;2023-07-20T13:00:33;21.20;99.90
46758;DHT22;32509;47.750;-3.396;2023-07-20T13:02:59;21.20;99.90
46758;DHT22;32509;47.750;-3.396;2023-07-20T13:05:25;21.20;99.90
46758;DHT22;32509;47.750;-3.396;2023-07-20T13:07:51;21.10;99.90
46758;DHT22;32509;47.750;-3.396;2023-07-20T13:10:18;21.10;99.90
46758;DHT22;32509;47.750;-3.396;2023-07-20T13:12:44;21.10;99.90
46758;DHT22;32509;47.750;-3.396;2023-07-20T13:15:10;21.10;99.90
46758;DHT22;32509;47.750;-3.396;2023-07-20T13:17:38;21.10;99.90
46758;DHT22;32509;47.750;-3.396;2023-07-20T13:20:06;21.10;99.90
46758;DHT22;32509;47.750;-3.396;2023-07-20T13:22:33;21.00;99.90
46758;DHT22;32509;47.750;-3.396;2023-07-20T13:25:00;21.10;99.90
46758;DHT22;32509;47.750;-3.396;2023-07-20T13:27:26;21.00;99.90
46758;DHT22;32509;47.750;-3.396;2023-07-20T13:29:52;21.00;99.90
46758;DHT22;32509;47.750;-3.396;2023-07-20T13:32:18;21.00;99.90
46758;DHT22;32509;47.750;-3.396;2023-07-20T13:34:45;21.00;99.90
46758;DHT22;32509;47.750;-3.396;2023-07-20T13:37:11;21.00;99.90
46758;DHT22;32509;47.750;-3.396;2023-07-20T13:39:38;21.00;99.90
46758;DHT22;32509;47.750;-3.396;2023-07-20T13:42:04;21.00;99.90
46758;DHT22;32509;47.750;-3.396;2023-07-20T13:44:33;21.00;99.90
46758;DHT22;32509;47.750;-3.396;2023-07-20T13:47:00;21.00;99.90
46758;DHT22;32509;47.750;-3.396;2023-07-20T13:49:26;20.90;99.90
46758;DHT22;32509;47.750;-3.396;2023-07-20T13:51:52;20.90;99.90
46758;DHT22;32509;47.750;-3.396;2023-07-20T13:54:18;20.90;99.90
46758;DHT22;32509;47.750;-3.396;2023-07-20T13:56:43;21.00;99.90
46758;DHT22;32509;47.750;-3.396;2023-07-20T13:59:09;20.90;99.90
46758;DHT22;32509;47.750;-3.396;2023-07-20T14:01:35;20.90;99.90
46758;DHT22;32509;47.750;-3.396;2023-07-20T14:04:02;20.90;99.90
46758;DHT22;32509;47.750;-3.396;2023-07-20T14:06:32;20.90;99.90
46758;DHT22;32509;47.750;-3.396;2023-07-20T14:08:59;21.00;99.90
46758;DHT22;32509;47.750;-3.396;2023-07-20T14:11:25;21.00;99.90
46758;DHT22;32509;47.750;-3.396;2023-07-20T14:13:53;21.00;99.90
46758;DHT22;32509;47.750;-3.396;2023-07-20T14:16:20;21.00;99.90
46758;DHT22;32509;47.750;-3.396;2023-07-20T14:18:46;20.90;99.90
46758;DHT22;32509;47.750;-3.396;2023-07-20T14:21:17;20.90;99.90
46758;DHT22;32509;47.750;-3.396;2023-07-20T14:23:45;20.90;99.90
46758;DHT22;32509;47.750;-3.396;2023-07-20T14:26:12;20.90;99.90
46758;DHT22;32509;47.750;-3.396;2023-07-20T14:28:38;20.90;99.90
46758;DHT22;32509;47.750;-3.396;2023-07-20T14:31:04;20.90;99.90
46758;DHT22;32509;47.750;-3.396;2023-07-20T14:33:30;20.90;99.90
46758;DHT22;32509;47.750;-3.396;2023-07-20T14:35:56;20.90;99.90
46758;DHT22;32509;47.750;-3.396;2023-07-20T14:38:22;20.90;99.90
46758;DHT22;32509;47.750;-3.396;2023-07-20T14:40:48;20.90;99.90
46758;DHT22;32509;47.750;-3.396;2023-07-20T14:43:14;21.00;99.90
46758;DHT22;32509;47.750;-3.396;2023-07-20T14:45:43;20.90;99.90
46758;DHT22;32509;47.750;-3.396;2023-07-20T14:48:09;20.90;99.90
46758;DHT22;32509;47.750;-3.396;2023-07-20T14:50:35;21.00;99.90
46758;DHT22;32509;47.750;-3.396;2023-07-20T14:53:00;21.00;99.90
46758;DHT22;32509;47.750;-3.396;2023-07-20T14:55:26;21.00;99.90
46758;DHT22;32509;47.750;-3.396;2023-07-20T14:57:52;21.00;99.90
46758;DHT22;32509;47.750;-3.396;2023-07-20T15:00:18;21.10;99.90
46758;DHT22;32509;47.750;-3.396;2023-07-20T15:02:45;21.00;99.90
46758;DHT22;32509;47.750;-3.396;2023-07-20T15:05:11;21.00;99.90
46758;DHT22;32509;47.750;-3.396;2023-07-20T15:07:37;21.00;99.90
46758;DHT22;32509;47.750;-3.396;2023-07-20T15:10:04;21.00;99.90
46758;DHT22;32509;47.750;-3.396;2023-07-20T15:12:30;21.00;99.90
46758;DHT22;32509;47.750;-3.396;2023-07-20T15:15:10;21.00;99.90
46758;DHT22;32509;47.750;-3.396;2023-07-20T15:17:37;20.90;99.90
46758;DHT22;32509;47.750;-3.396;2023-07-20T15:20:04;21.00;99.90
46758;DHT22;32509;47.750;-3.396;2023-07-20T15:22:34;21.00;99.90
46758;DHT22;32509;47.750;-3.396;2023-07-20T15:25:02;21.00;99.90
46758;DHT22;32509;47.750;-3.396;2023-07-20T15:27:29;20.90;99.90